Time;durP1;ratioP1;P1;durP2;ratioP2;P2;SDS_P1;SDS_P2;PMS_P1;PMS_P2;Temp;Humidity;BMP_temperature;BMP_pressure;BME280_temperature;BME280_humidity;BME280_pressure;Samples;Min_cycle;Max_cycle;Signal;HPM_P1;HPM_P2
2023/08/10 00:00:24;;;;;;;;;;;;;;;;;;4996354;28;19910;-83
2023/08/10 00:02:51;;;;;;;;;;;;;;;;;;4996019;28;20394;-84
2023/08/10 00:05:16;;;;;;;;;;;;;;;;;;4996220;28;19963;-83
2023/08/10 00:07:41;;;;;;;;;;;;;;;;;;4995963;28;19957;-83
2023/08/10 00:10:08;;;;;;;;;;;;;;;;;;4996112;28;20367;-83
2023/08/10 00:12:34;;;;;;;;;;;;;;;;;;4996241;28;19910;-84
2023/08/10 00:14:59;;;;;;;;;;;;;;;;;;4996245;28;19968;-83
2023/08/10 00:17:24;;;;;;;;;;;;;;;;;;4996183;28;19949;-83
2023/08/10 00:19:50;;;;;;;;;;;;;;;;;;4995833;28;20005;-84
2023/08/10 00:22:15;;;;;;;;;;;;;;;;;;4995916;28;19971;-83
2023/08/10 00:24:40;;;;;;;;;;;;;;;;;;4995987;28;19916;-84
2023/08/10 00:27:06;;;;;;;;;;;;;;;;;;4995655;28;19921;-83
2023/08/10 00:29:31;;;;;;;;;;;;;;;;;;4995709;28;19936;-84
2023/08/10 00:31:56;;;;;;;;;;;;;;;;;;4995428;28;19909;-83
2023/08/10 00:34:22;;;;;;;;;;;;;;;;;;4995733;28;19914;-83
2023/08/10 00:36:47;;;;;;;;;;;;;;;;;;4978426;28;20004;-83
2023/08/10 00:39:13;;;;;;;;;;;;;;;;;;4995548;28;19913;-83
2023/08/10 00:41:38;;;;;;;;;;;;;;;;;;4995544;28;19928;-84
2023/08/10 00:44:04;;;;;;;;;;;;;;;;;;4995409;28;19964;-84
2023/08/10 00:46:30;;;;;;;;;;;;;;;;;;4995278;28;19918;-83
2023/08/10 00:48:55;;;;;;;;;;;;;;;;;;4995300;28;19914;-83
2023/08/10 00:51:22;;;;;;;;;;;;;;;;;;4995209;28;20432;-84
2023/08/10 00:53:48;;;;;;;;;;;;;;;;;;4995302;28;19913;-84
2023/08/10 00:56:14;;;;;;;;;;;;;;;;;;4995168;28;19959;-84
2023/08/10 00:58:40;;;;;;;;;;;;;;;;;;4995159;28;19960;-84
2023/08/10 01:01:05;;;;;;;;;;;;;;;;;;4995234;28;20021;-84
2023/08/10 01:03:31;;;;;;;;;;;;;;;;;;4995489;28;20380;-84
2023/08/10 01:06:18;;;;;;;;;;;;;;;;;;4994835;28;19945;-83
2023/08/10 01:09:03;;;;;;;;;;;;;;;;;;4994956;28;20053;-84
2023/08/10 01:11:44;;;;;;;;;;;;;;;;;;4994780;28;19913;-84
2023/08/10 01:14:19;;;;;;;;;;;;;;;;;;4994810;28;19916;-84
2023/08/10 01:16:45;;;;;;;;;;;;;;;;;;4995023;28;20008;-84
2023/08/10 01:19:37;;;;;;;;;;;;;;;;;;4994543;28;20380;-84
2023/08/10 01:22:16;;;;;;;;;;;;;;;;;;4987699;28;19949;-83
2023/08/10 01:24:43;;;;;;;;;;;;;;;;;;4994994;28;19913;-85
2023/08/10 01:27:10;;;;;;;;;;;;;;;;;;4994816;28;19945;-85
2023/08/10 01:29:35;;;;;;;;;;;;;;;;;;4994881;28;20012;-84
2023/08/10 01:32:01;;;;;;;;;;;;;;;;;;4994650;28;19945;-84
2023/08/10 01:34:27;;;;;;;;;;;;;;;;;;4994695;28;20403;-83
2023/08/10 01:36:52;;;;;;;;;;;;;;;;;;4977289;28;19953;-84
2023/08/10 01:39:17;;;;;;;;;;;;;;;;;;4994793;28;20368;-83
2023/08/10 01:41:43;;;;;;;;;;;;;;;;;;4994473;28;19914;-83
2023/08/10 01:44:08;;;;;;;;;;;;;;;;;;4977183;28;19916;-83
2023/08/10 01:46:36;;;;;;;;;;;;;;;;;;4994642;28;19914;-83
2023/08/10 01:49:03;;;;;;;;;;;;;;;;;;4995049;28;20000;-83
2023/08/10 01:51:28;;;;;;;;;;;;;;;;;;4976906;28;20265;-84
2023/08/10 01:53:54;;;;;;;;;;;;;;;;;;4994510;28;19913;-84
2023/08/10 01:56:20;;;;;;;;;;;;;;;;;;4994579;28;19973;-84
2023/08/10 01:58:46;;;;;;;;;;;;;;;;;;4994394;28;20311;-83
2023/08/10 02:01:11;;;;;;;;;;;;;;;;;;4994556;28;19914;-83
2023/08/10 02:03:37;;;;;;;;;;;;;;;;;;4994379;28;20323;-83
2023/08/10 02:06:02;;;;;;;;;;;;;;;;;;4994199;28;19922;-84
2023/08/10 02:08:27;;;;;;;;;;;;;;;;;;4994188;28;19914;-83
2023/08/10 02:10:53;;;;;;;;;;;;;;;;;;4994430;28;19959;-84
2023/08/10 02:13:18;;;;;;;;;;;;;;;;;;4994726;28;19960;-83
2023/08/10 02:15:43;;;;;;;;;;;;;;;;;;4994489;28;19918;-83
2023/08/10 02:18:11;;;;;;;;;;;;;;;;;;4994162;28;19914;-83
2023/08/10 02:20:37;;;;;;;;;;;;;;;;;;4994425;28;20357;-83
2023/08/10 02:23:03;;;;;;;;;;;;;;;;;;4994464;28;19925;-84
2023/08/10 02:25:28;;;;;;;;;;;;;;;;;;4994466;28;19968;-84
2023/08/10 02:27:54;;;;;;;;;;;;;;;;;;4994290;28;20284;-84
2023/08/10 02:30:20;;;;;;;;;;;;;;;;;;4995510;28;20000;-83
2023/08/10 02:32:45;;;;;;;;;;;;;;;;;;4997822;28;19916;-84
2023/08/10 02:35:11;;;;;;;;;;;;;;;;;;4997770;28;19944;-83
2023/08/10 02:37:37;;;;;;;;;;;;;;;;;;4997809;28;19914;-84
2023/08/10 02:40:07;;;;;;;;;;;;;;;;;;4997968;28;19914;-84
2023/08/10 02:42:32;;;;;;;;;;;;;;;;;;4997872;28;19941;-83
2023/08/10 02:44:57;;;;;;;;;;;;;;;;;;4997501;28;20357;-84
2023/08/10 02:47:23;;;;;;;;;;;;;;;;;;4997481;28;19914;-84
2023/08/10 02:49:48;;;;;;;;;;;;;;;;;;4997739;28;19914;-85
2023/08/10 02:52:14;;;;;;;;;;;;;;;;;;4997562;28;19917;-84
2023/08/10 02:54:39;;;;;;;;;;;;;;;;;;4997541;28;19941;-84
2023/08/10 02:57:05;;;;;;;;;;;;;;;;;;4997398;28;19976;-84
2023/08/10 02:59:30;;;;;;;;;;;;;;;;;;4997366;28;19914;-83
2023/08/10 03:01:55;;;;;;;;;;;;;;;;;;4997127;28;19914;-83
2023/08/10 03:04:21;;;;;;;;;;;;;;;;;;4997564;28;19909;-84
2023/08/10 03:06:46;;;;;;;;;;;;;;;;;;4997083;28;19917;-84
2023/08/10 03:09:11;;;;;;;;;;;;;;;;;;4997208;28;19920;-83
2023/08/10 03:11:37;;;;;;;;;;;;;;;;;;4997015;28;19968;-83
2023/08/10 03:14:02;;;;;;;;;;;;;;;;;;4997207;28;19917;-83
2023/08/10 03:16:28;;;;;;;;;;;;;;;;;;4997286;28;19921;-84
2023/08/10 03:18:53;;;;;;;;;;;;;;;;;;4996937;28;19920;-83
2023/08/10 03:21:19;;;;;;;;;;;;;;;;;;4996790;28;19914;-83
2023/08/10 03:23:46;;;;;;;;;;;;;;;;;;4997177;28;20336;-83
2023/08/10 03:26:11;;;;;;;;;;;;;;;;;;4997002;28;19969;-83
2023/08/10 03:28:37;;;;;;;;;;;;;;;;;;4996756;28;19956;-84
2023/08/10 03:31:02;;;;;;;;;;;;;;;;;;4996956;28;19925;-83
2023/08/10 03:33:28;;;;;;;;;;;;;;;;;;4996825;28;19914;-83
2023/08/10 03:35:53;;;;;;;;;;;;;;;;;;4996735;28;19913;-83
2023/08/10 03:38:18;;;;;;;;;;;;;;;;;;4996836;28;19914;-84
2023/08/10 03:40:44;;;;;;;;;;;;;;;;;;4996804;28;19913;-83
2023/08/10 03:43:09;;;;;;;;;;;;;;;;;;4996140;28;20379;-84
2023/08/10 03:45:34;;;;;;;;;;;;;;;;;;4996614;28;19944;-83
2023/08/10 03:48:00;;;;;;;;;;;;;;;;;;4996352;28;19917;-83
2023/08/10 03:50:25;;;;;;;;;;;;;;;;;;4996692;28;19921;-84
2023/08/10 03:52:50;;;;;;;;;;;;;;;;;;4978924;28;20406;-83
2023/08/10 03:55:15;;;;;;;;;;;;;;;;;;4996691;28;19914;-83
2023/08/10 03:57:41;;;;;;;;;;;;;;;;;;4996322;28;19968;-83
2023/08/10 04:00:07;;;;;;;;;;;;;;;;;;4978819;28;19918;-84
2023/08/10 04:02:33;;;;;;;;;;;;;;;;;;4996127;28;19961;-83
2023/08/10 04:04:58;;;;;;;;;;;;;;;;;;4995984;28;19960;-83
2023/08/10 04:07:24;;;;;;;;;;;;;;;;;;4978618;28;19914;-86
2023/08/10 04:09:49;;;;;;;;;;;;;;;;;;4996341;28;19914;-83
2023/08/10 04:12:15;;;;;;;;;;;;;;;;;;4995999;28;19913;-82
2023/08/10 04:14:41;;;;;;;;;;;;;;;;;;4995941;28;20012;-83
2023/08/10 04:17:06;;;;;;;;;;;;;;;;;;4995931;28;19999;-82
2023/08/10 04:19:31;;;;;;;;;;;;;;;;;;4995962;28;19913;-82
2023/08/10 04:21:57;;;;;;;;;;;;;;;;;;4996031;28;19929;-83
2023/08/10 04:24:22;;;;;;;;;;;;;;;;;;4995950;28;19918;-83
2023/08/10 04:26:47;;;;;;;;;;;;;;;;;;4995938;28;19977;-82
2023/08/10 04:29:13;;;;;;;;;;;;;;;;;;4995773;28;19913;-83
2023/08/10 04:31:38;;;;;;;;;;;;;;;;;;4978136;28;19914;-83
2023/08/10 04:34:04;;;;;;;;;;;;;;;;;;4995575;28;19917;-82
2023/08/10 04:36:29;;;;;;;;;;;;;;;;;;4978182;28;19914;-83
2023/08/10 04:38:54;;;;;;;;;;;;;;;;;;4995696;28;19914;-83
2023/08/10 04:41:20;;;;;;;;;;;;;;;;;;4995438;28;20383;-82
2023/08/10 04:43:45;;;;;;;;;;;;;;;;;;4995569;28;19914;-82
2023/08/10 04:46:10;;;;;;;;;;;;;;;;;;4995653;28;19918;-83
2023/08/10 04:48:36;;;;;;;;;;;;;;;;;;4995374;28;19914;-81
2023/08/10 04:51:01;;;;;;;;;;;;;;;;;;4995322;28;19921;-84
2023/08/10 04:53:27;;;;;;;;;;;;;;;;;;4994591;28;19913;-82
2023/08/10 04:55:52;;;;;;;;;;;;;;;;;;4995156;28;19988;-86
2023/08/10 04:58:17;;;;;;;;;;;;;;;;;;4995349;28;20395;-82
2023/08/10 05:00:43;;;;;;;;;;;;;;;;;;4994994;28;19917;-82
2023/08/10 05:03:08;;;;;;;;;;;;;;;;;;4995034;28;19914;-82
2023/08/10 05:05:34;;;;;;;;;;;;;;;;;;4995138;28;20321;-81
2023/08/10 05:08:00;;;;;;;;;;;;;;;;;;4995079;28;19914;-83
2023/08/10 05:10:25;;;;;;;;;;;;;;;;;;4994962;28;20035;-83
2023/08/10 05:12:50;;;;;;;;;;;;;;;;;;4977504;28;20352;-82
2023/08/10 05:15:16;;;;;;;;;;;;;;;;;;4995264;28;19914;-87
2023/08/10 05:17:41;;;;;;;;;;;;;;;;;;4977062;28;20288;-82
2023/08/10 05:20:10;;;;;;;;;;;;;;;;;;4995035;28;19914;-84
2023/08/10 05:22:44;;;;;;;;;;;;;;;;;;4977372;28;19913;-84
2023/08/10 05:25:11;;;;;;;;;;;;;;;;;;4994747;28;19917;-84
2023/08/10 05:27:37;;;;;;;;;;;;;;;;;;4994254;28;20364;-84
2023/08/10 05:30:04;;;;;;;;;;;;;;;;;;4994700;28;20374;-84
2023/08/10 05:32:29;;;;;;;;;;;;;;;;;;4994080;28;19913;-83
2023/08/10 05:34:54;;;;;;;;;;;;;;;;;;4977289;28;20379;-83
2023/08/10 05:37:20;;;;;;;;;;;;;;;;;;4994632;28;19913;-84
2023/08/10 05:39:45;;;;;;;;;;;;;;;;;;4994647;28;19914;-83
2023/08/10 05:42:10;;;;;;;;;;;;;;;;;;4994658;28;19918;-84
2023/08/10 05:44:35;;;;;;;;;;;;;;;;;;4994676;28;19914;-84
2023/08/10 05:47:01;;;;;;;;;;;;;;;;;;4994709;28;19914;-83
2023/08/10 05:49:26;;;;;;;;;;;;;;;;;;4994624;28;19914;-83
2023/08/10 05:51:51;;;;;;;;;;;;;;;;;;4994688;28;19913;-84
2023/08/10 05:54:17;;;;;;;;;;;;;;;;;;4994455;28;19914;-83
2023/08/10 05:56:42;;;;;;;;;;;;;;;;;;4994646;28;19952;-85
2023/08/10 05:59:07;;;;;;;;;;;;;;;;;;4994991;28;19917;-90
2023/08/10 06:01:33;;;;;;;;;;;;;;;;;;4980558;28;19917;-90
2023/08/10 06:03:59;;;;;;;;;;;;;;;;;;4978949;28;19914;-91
2023/08/10 06:06:25;;;;;;;;;;;;;;;;;;4997951;28;20048;-89
2023/08/10 06:08:50;;;;;;;;;;;;;;;;;;4981798;28;20399;-93
2023/08/10 06:11:15;;;;;;;;;;;;;;;;;;4999852;28;19949;-94
2023/08/10 06:13:41;;;;;;;;;;;;;;;;;;4999243;28;19961;-90
2023/08/10 06:16:07;;;;;;;;;;;;;;;;;;4999884;28;19996;-93
2023/08/10 06:18:34;;;;;;;;;;;;;;;;;;4998738;28;19953;-86
2023/08/10 06:21:01;;;;;;;;;;;;;;;;;;4980505;28;19918;-86
2023/08/10 06:23:27;;;;;;;;;;;;;;;;;;4998453;28;20000;-92
2023/08/10 06:25:54;;;;;;;;;;;;;;;;;;5000188;28;19924;-89
2023/08/10 06:28:20;;;;;;;;;;;;;;;;;;4998940;28;19921;-93
2023/08/10 09:24:59;;;;;;;;;;;;;;;;;;5388109;23;19922;-86
2023/08/10 09:27:26;;;;;;;;;;;;;;;;;;4995365;28;19921;-89
2023/08/10 09:29:55;;;;;;;;;;;;;;;;;;4995288;28;20308;-91
2023/08/10 09:32:20;;;;;;;;;;;;;;;;;;4972184;28;20328;-84
2023/08/10 09:34:46;;;;;;;;;;;;;;;;;;4975829;28;19914;-89
2023/08/10 09:37:14;;;;;;;;;;;;;;;;;;4979065;28;19921;-93
2023/08/10 09:39:40;;;;;;;;;;;;;;;;;;4986675;28;19914;-90
2023/08/10 09:42:05;;;;;;;;;;;;;;;;;;4975574;28;19937;-91
2023/08/10 09:44:44;;;;;;;;;;;;;;;;;;4973945;28;19914;-85
2023/08/10 09:47:10;;;;;;;;;;;;;;;;;;4975063;28;19914;-86
2023/08/10 09:49:35;;;;;;;;;;;;;;;;;;4975640;28;19914;-85
2023/08/10 09:52:01;;;;;;;;;;;;;;;;;;4976310;28;19990;-91
2023/08/10 09:54:27;;;;;;;;;;;;;;;;;;4975381;28;19949;-88
2023/08/10 09:56:53;;;;;;;;;;;;;;;;;;4979923;28;20365;-86
2023/08/10 09:59:19;;;;;;;;;;;;;;;;;;4984537;28;19921;-86
2023/08/10 10:01:45;;;;;;;;;;;;;;;;;;4979269;28;20014;-93
2023/08/10 10:04:10;;;;;;;;;;;;;;;;;;4980468;28;20360;-89
2023/08/10 10:06:36;;;;;;;;;;;;;;;;;;4976218;28;19914;-90
2023/08/10 10:09:03;;;;;;;;;;;;;;;;;;4975915;28;19914;-92
2023/08/10 10:11:29;;;;;;;;;;;;;;;;;;4977199;28;19914;-88
2023/08/10 10:13:54;;;;;;;;;;;;;;;;;;4979140;28;19925;-91
2023/08/10 10:16:19;;;;;;;;;;;;;;;;;;4978402;28;19914;-93
2023/08/10 10:18:45;;;;;;;;;;;;;;;;;;4958144;28;19918;-89
2023/08/10 10:21:11;;;;;;;;;;;;;;;;;;4958090;28;19914;-89
2023/08/10 10:23:40;;;;;;;;;;;;;;;;;;4975043;28;19929;-88
2023/08/10 10:26:10;;;;;;;;;;;;;;;;;;4975531;28;19925;-92
2023/08/10 10:28:35;;;;;;;;;;;;;;;;;;4974191;28;19976;-88
2023/08/10 10:31:03;;;;;;;;;;;;;;;;;;4975083;28;20360;-88
2023/08/10 10:33:29;;;;;;;;;;;;;;;;;;4974622;28;19914;-87
2023/08/10 10:36:23;;;;;;;;;;;;;;;;;;4974868;28;19918;-86
2023/08/10 10:38:53;;;;;;;;;;;;;;;;;;4945367;28;19914;-87
2023/08/10 10:41:30;;;;;;;;;;;;;;;;;;4975060;28;19956;-87
2023/08/10 10:43:57;;;;;;;;;;;;;;;;;;4974608;28;20304;-84
2023/08/10 10:46:31;;;;;;;;;;;;;;;;;;4957232;28;19949;-84
2023/08/10 10:48:57;;;;;;;;;;;;;;;;;;4974565;28;19914;-85
2023/08/10 10:51:22;;;;;;;;;;;;;;;;;;4975813;28;19937;-86
2023/08/10 10:53:51;;;;;;;;;;;;;;;;;;4960803;28;20364;-87
2023/08/10 10:56:16;;;;;;;;;;;;;;;;;;4978817;28;19914;-89
2023/08/10 10:58:42;;;;;;;;;;;;;;;;;;4981430;28;20060;-94
2023/08/10 11:01:07;;;;;;;;;;;;;;;;;;4961670;28;19914;-89
2023/08/10 11:03:33;;;;;;;;;;;;;;;;;;4961169;28;19913;-90
2023/08/10 11:05:59;;;;;;;;;;;;;;;;;;4961315;28;19976;-90
2023/08/10 11:08:24;;;;;;;;;;;;;;;;;;4978133;28;19924;-90
2023/08/10 11:10:51;;;;;;;;;;;;;;;;;;4961256;28;19922;-90
2023/08/10 11:13:17;;;;;;;;;;;;;;;;;;4976727;28;19968;-89
2023/08/10 11:15:45;;;;;;;;;;;;;;;;;;4961350;28;19920;-88
2023/08/10 11:18:11;;;;;;;;;;;;;;;;;;4978545;28;19921;-89
2023/08/10 11:20:48;;;;;;;;;;;;;;;;;;4961007;28;19914;-91
2023/08/10 11:23:13;;;;;;;;;;;;;;;;;;4960705;28;19914;-89
2023/08/10 11:25:50;;;;;;;;;;;;;;;;;;4977942;28;19965;-89
2023/08/10 11:28:17;;;;;;;;;;;;;;;;;;4977789;28;19958;-88
2023/08/10 11:30:43;;;;;;;;;;;;;;;;;;4978004;28;19914;-89
2023/08/10 11:33:08;;;;;;;;;;;;;;;;;;4960396;28;20365;-81
2023/08/10 11:35:34;;;;;;;;;;;;;;;;;;4977348;28;19918;-79
2023/08/10 11:37:59;;;;;;;;;;;;;;;;;;4977115;28;19914;-79
2023/08/10 11:40:24;;;;;;;;;;;;;;;;;;4977608;28;19968;-79
2023/08/10 11:42:52;;;;;;;;;;;;;;;;;;4977438;28;20001;-79
2023/08/10 11:45:20;;;;;;;;;;;;;;;;;;4977370;28;19914;-79
2023/08/10 11:47:50;;;;;;;;;;;;;;;;;;4976991;28;19937;-79
2023/08/10 16:11:39;;;;;;;;;;;;;;;;;;4955904;29;19922;-79
2023/08/10 16:14:05;;;;;;;;;;;;;;;;;;4957390;28;20361;-79
2023/08/10 16:16:30;;;;;;;;;;;;;;;;;;4957488;29;19946;-79
2023/08/10 16:18:56;;;;;;;;;;;;;;;;;;4939933;29;20409;-78
2023/08/10 16:21:21;;;;;;;;;;;;;;;;;;4957388;29;20005;-79
2023/08/10 16:23:46;;;;;;;;;;;;;;;;;;4957434;28;19941;-79
2023/08/10 16:26:12;;;;;;;;;;;;;;;;;;4939871;29;20287;-81
2023/08/10 16:28:37;;;;;;;;;;;;;;;;;;4956760;28;19922;-82
2023/08/10 16:31:04;;;;;;;;;;;;;;;;;;4957172;29;20349;-79
2023/08/10 16:33:29;;;;;;;;;;;;;;;;;;4956937;29;20009;-81
2023/08/10 16:35:54;;;;;;;;;;;;;;;;;;4956990;29;19956;-81
2023/08/10 16:38:20;;;;;;;;;;;;;;;;;;4956824;28;19996;-82
2023/08/10 16:40:45;;;;;;;;;;;;;;;;;;4957169;29;19911;-82
2023/08/10 16:43:10;;;;;;;;;;;;;;;;;;4956746;29;20421;-81
2023/08/10 16:45:36;;;;;;;;;;;;;;;;;;4956782;29;20054;-81
2023/08/10 16:48:01;;;;;;;;;;;;;;;;;;4956500;29;19918;-81
2023/08/10 16:50:26;;;;;;;;;;;;;;;;;;4956610;28;20376;-80
2023/08/10 16:52:52;;;;;;;;;;;;;;;;;;4956777;29;19958;-82
2023/08/10 16:55:18;;;;;;;;;;;;;;;;;;4956631;29;19918;-86
2023/08/10 16:57:44;;;;;;;;;;;;;;;;;;4956452;28;19910;-81
2023/08/10 17:00:09;;;;;;;;;;;;;;;;;;4956430;29;19918;-81
2023/08/10 17:02:37;;;;;;;;;;;;;;;;;;4956164;29;19961;-81
2023/08/10 17:05:02;;;;;;;;;;;;;;;;;;4956350;29;19997;-82
2023/08/10 17:07:28;;;;;;;;;;;;;;;;;;4956380;29;20388;-81
2023/08/10 17:09:55;;;;;;;;;;;;;;;;;;4956371;29;20309;-81
2023/08/10 17:12:21;;;;;;;;;;;;;;;;;;4955954;29;19942;-81
2023/08/10 17:14:46;;;;;;;;;;;;;;;;;;4956669;29;19918;-81
2023/08/10 17:17:11;;;;;;;;;;;;;;;;;;4939013;29;19937;-81
2023/08/10 17:19:37;;;;;;;;;;;;;;;;;;4956258;29;19919;-85
2023/08/10 17:22:04;;;;;;;;;;;;;;;;;;4939053;29;19921;-87
2023/08/10 17:24:30;;;;;;;;;;;;;;;;;;4956171;29;19922;-84
2023/08/10 17:26:55;;;;;;;;;;;;;;;;;;4956222;28;20395;-86
2023/08/10 17:29:20;;;;;;;;;;;;;;;;;;4956277;29;20317;-86
2023/08/10 17:31:45;;;;;;;;;;;;;;;;;;4956093;29;19914;-85
2023/08/10 17:34:11;;;;;;;;;;;;;;;;;;4956261;29;19946;-84
2023/08/10 17:36:36;;;;;;;;;;;;;;;;;;4956490;29;19984;-91
2023/08/10 17:39:02;;;;;;;;;;;;;;;;;;4956191;29;19918;-84
2023/08/10 17:41:28;;;;;;;;;;;;;;;;;;4938598;29;19919;-84
2023/08/10 17:43:53;;;;;;;;;;;;;;;;;;4956002;29;19987;-84
2023/08/10 17:46:23;;;;;;;;;;;;;;;;;;4955944;29;19914;-87
2023/08/10 17:48:49;;;;;;;;;;;;;;;;;;4955998;29;19914;-86
2023/08/10 17:51:15;;;;;;;;;;;;;;;;;;4955897;29;19922;-87
2023/08/10 17:53:40;;;;;;;;;;;;;;;;;;4938952;29;20361;-86
2023/08/10 17:56:05;;;;;;;;;;;;;;;;;;4955898;29;19957;-87
2023/08/10 17:58:31;;;;;;;;;;;;;;;;;;4955717;29;19953;-84
2023/08/10 18:01:06;;;;;;;;;;;;;;;;;;4956421;28;20004;-86
2023/08/10 18:03:32;;;;;;;;;;;;;;;;;;4960106;29;19915;-89
2023/08/10 18:05:57;;;;;;;;;;;;;;;;;;4966652;28;20336;-91
2023/08/10 18:08:22;;;;;;;;;;;;;;;;;;4964146;29;19921;-90
2023/08/10 18:10:48;;;;;;;;;;;;;;;;;;4960795;28;19922;-90
2023/08/10 18:13:13;;;;;;;;;;;;;;;;;;4960096;29;20021;-89
2023/08/10 18:15:38;;;;;;;;;;;;;;;;;;4959893;29;20417;-89
2023/08/10 18:18:04;;;;;;;;;;;;;;;;;;4960061;29;19921;-89
2023/08/10 18:20:29;;;;;;;;;;;;;;;;;;4964789;29;20010;-93
2023/08/10 18:22:54;;;;;;;;;;;;;;;;;;4948800;29;19961;-89
2023/08/10 18:25:21;;;;;;;;;;;;;;;;;;4946080;29;20281;-86
2023/08/10 18:27:47;;;;;;;;;;;;;;;;;;4966297;29;19915;-87
2023/08/10 18:30:13;;;;;;;;;;;;;;;;;;4965436;29;19922;-89
2023/08/10 18:32:38;;;;;;;;;;;;;;;;;;4946563;29;19921;-87
2023/08/10 18:35:03;;;;;;;;;;;;;;;;;;4964736;29;19978;-86
2023/08/10 18:37:29;;;;;;;;;;;;;;;;;;4947303;29;20284;-88
2023/08/10 18:39:54;;;;;;;;;;;;;;;;;;4947232;29;19921;-86
2023/08/10 18:42:20;;;;;;;;;;;;;;;;;;4964696;29;19915;-86
2023/08/10 18:44:45;;;;;;;;;;;;;;;;;;4963970;29;20013;-86
2023/08/10 18:47:10;;;;;;;;;;;;;;;;;;4962891;29;19921;-89
2023/08/10 18:49:36;;;;;;;;;;;;;;;;;;4965722;29;19921;-86
2023/08/10 18:52:01;;;;;;;;;;;;;;;;;;4965172;29;20005;-89
2023/08/10 18:54:27;;;;;;;;;;;;;;;;;;4967001;29;19952;-86
2023/08/10 18:56:52;;;;;;;;;;;;;;;;;;4948114;29;19914;-87
2023/08/10 18:59:17;;;;;;;;;;;;;;;;;;4965839;29;19914;-87
2023/08/10 19:01:43;;;;;;;;;;;;;;;;;;4965157;29;19914;-86
2023/08/10 19:04:08;;;;;;;;;;;;;;;;;;4960458;29;19915;-87
2023/08/10 19:06:34;;;;;;;;;;;;;;;;;;4960726;29;19930;-90
2023/08/10 19:08:59;;;;;;;;;;;;;;;;;;4961034;29;19929;-85
2023/08/10 19:11:25;;;;;;;;;;;;;;;;;;4959819;29;20358;-81
2023/08/10 19:13:50;;;;;;;;;;;;;;;;;;4957267;28;19915;-83
2023/08/10 19:16:16;;;;;;;;;;;;;;;;;;4958574;29;19973;-84
2023/08/10 19:18:42;;;;;;;;;;;;;;;;;;4958530;29;19957;-83
2023/08/10 19:21:07;;;;;;;;;;;;;;;;;;4958376;29;19960;-84
2023/08/10 19:23:33;;;;;;;;;;;;;;;;;;4958635;29;19954;-84
2023/08/10 19:25:58;;;;;;;;;;;;;;;;;;4958721;29;19918;-85
2023/08/10 19:28:24;;;;;;;;;;;;;;;;;;4958513;29;19914;-85
2023/08/10 19:30:50;;;;;;;;;;;;;;;;;;4958666;29;19921;-86
2023/08/10 19:33:16;;;;;;;;;;;;;;;;;;4958467;29;19972;-85
2023/08/10 19:35:41;;;;;;;;;;;;;;;;;;4941205;29;20321;-86
2023/08/10 19:38:06;;;;;;;;;;;;;;;;;;4958261;29;19915;-88
2023/08/10 19:40:32;;;;;;;;;;;;;;;;;;4941620;29;19914;-87
2023/08/10 19:42:57;;;;;;;;;;;;;;;;;;4941178;29;20025;-87
2023/08/10 19:45:22;;;;;;;;;;;;;;;;;;4941183;29;19915;-86
2023/08/10 19:47:48;;;;;;;;;;;;;;;;;;4958337;29;19915;-86
2023/08/10 19:50:14;;;;;;;;;;;;;;;;;;4958067;29;19921;-87
2023/08/10 19:52:40;;;;;;;;;;;;;;;;;;4958599;29;19921;-87
2023/08/10 19:55:09;;;;;;;;;;;;;;;;;;4958307;29;19918;-88
2023/08/10 19:57:34;;;;;;;;;;;;;;;;;;4940608;29;19921;-86
2023/08/10 20:00:00;;;;;;;;;;;;;;;;;;4958076;29;20001;-87
2023/08/10 20:02:25;;;;;;;;;;;;;;;;;;4957856;29;19914;-86
2023/08/10 20:04:52;;;;;;;;;;;;;;;;;;4957898;29;20262;-86
2023/08/10 20:07:17;;;;;;;;;;;;;;;;;;4939292;28;19964;-85
2023/08/10 20:09:42;;;;;;;;;;;;;;;;;;4948967;28;19915;-89
2023/08/10 20:12:09;;;;;;;;;;;;;;;;;;4942337;29;19918;-85
2023/08/10 20:14:35;;;;;;;;;;;;;;;;;;4939381;29;20294;-85
2023/08/10 20:17:00;;;;;;;;;;;;;;;;;;4945084;29;19915;-85
2023/08/10 20:19:25;;;;;;;;;;;;;;;;;;4938155;29;19921;-84
2023/08/10 20:21:51;;;;;;;;;;;;;;;;;;4938016;29;20001;-84
2023/08/10 20:24:17;;;;;;;;;;;;;;;;;;4920320;29;19921;-85
2023/08/10 20:26:43;;;;;;;;;;;;;;;;;;4937886;29;19914;-85
2023/08/10 20:29:08;;;;;;;;;;;;;;;;;;4920749;29;19915;-85
2023/08/10 20:31:33;;;;;;;;;;;;;;;;;;4937805;29;20005;-85
2023/08/10 20:33:59;;;;;;;;;;;;;;;;;;4937927;29;19978;-85
2023/08/10 20:36:24;;;;;;;;;;;;;;;;;;4920676;29;20361;-84
2023/08/10 20:38:50;;;;;;;;;;;;;;;;;;4937656;29;19915;-84
2023/08/10 20:41:15;;;;;;;;;;;;;;;;;;4938886;29;19972;-84
2023/08/10 20:43:40;;;;;;;;;;;;;;;;;;4956988;29;19914;-84
2023/08/10 20:46:26;;;;;;;;;;;;;;;;;;4956784;29;19915;-84
2023/08/10 20:48:52;;;;;;;;;;;;;;;;;;4938794;29;19914;-84
2023/08/10 20:51:18;;;;;;;;;;;;;;;;;;4956374;29;19925;-83
2023/08/10 20:53:44;;;;;;;;;;;;;;;;;;4939766;29;19914;-84
2023/08/10 20:56:10;;;;;;;;;;;;;;;;;;4939282;29;20357;-87
2023/08/10 20:58:36;;;;;;;;;;;;;;;;;;4956562;29;19914;-86
2023/08/10 21:01:05;;;;;;;;;;;;;;;;;;4956432;29;19914;-84
2023/08/10 21:03:30;;;;;;;;;;;;;;;;;;4956312;29;19918;-84
2023/08/10 21:05:56;;;;;;;;;;;;;;;;;;4956345;29;19918;-84
2023/08/10 21:08:21;;;;;;;;;;;;;;;;;;4938846;29;20427;-84
2023/08/10 21:10:46;;;;;;;;;;;;;;;;;;4938822;28;20298;-84
2023/08/10 21:13:12;;;;;;;;;;;;;;;;;;4947396;29;19919;-84
2023/08/10 21:15:37;;;;;;;;;;;;;;;;;;4937204;29;19923;-84
2023/08/10 21:18:05;;;;;;;;;;;;;;;;;;4937024;29;19915;-85
2023/08/10 21:20:30;;;;;;;;;;;;;;;;;;4920583;29;19922;-84
2023/08/10 21:22:55;;;;;;;;;;;;;;;;;;4937129;29;20389;-85
2023/08/10 21:25:21;;;;;;;;;;;;;;;;;;4919857;29;20377;-84
2023/08/10 21:27:46;;;;;;;;;;;;;;;;;;4936938;29;19914;-85
2023/08/10 21:30:11;;;;;;;;;;;;;;;;;;4936958;29;19958;-85
2023/08/10 21:32:37;;;;;;;;;;;;;;;;;;4937231;29;19937;-85
2023/08/10 21:35:03;;;;;;;;;;;;;;;;;;4919531;29;19962;-84
2023/08/10 21:37:28;;;;;;;;;;;;;;;;;;4936472;29;20281;-85
2023/08/10 21:39:53;;;;;;;;;;;;;;;;;;4937165;29;19970;-84
2023/08/10 21:42:18;;;;;;;;;;;;;;;;;;4937026;29;19915;-84
2023/08/10 21:44:44;;;;;;;;;;;;;;;;;;4936766;29;19917;-85
2023/08/10 21:47:09;;;;;;;;;;;;;;;;;;4936896;29;20021;-85
2023/08/10 21:49:35;;;;;;;;;;;;;;;;;;4936676;29;19962;-85
2023/08/10 21:52:00;;;;;;;;;;;;;;;;;;4936804;29;20013;-84
2023/08/10 21:54:25;;;;;;;;;;;;;;;;;;4919648;29;19915;-84
2023/08/10 21:56:51;;;;;;;;;;;;;;;;;;4936986;29;19915;-85
2023/08/10 21:59:16;;;;;;;;;;;;;;;;;;4936696;29;20373;-85
2023/08/10 22:01:41;;;;;;;;;;;;;;;;;;4936530;29;19918;-85
2023/08/10 22:04:07;;;;;;;;;;;;;;;;;;4919717;29;19918;-84
2023/08/10 22:06:32;;;;;;;;;;;;;;;;;;4936589;29;19922;-84
2023/08/10 22:08:57;;;;;;;;;;;;;;;;;;4936790;29;19923;-84
2023/08/10 22:11:23;;;;;;;;;;;;;;;;;;4936420;29;19919;-84
2023/08/10 22:13:48;;;;;;;;;;;;;;;;;;4936555;29;19921;-85
2023/08/10 22:16:13;;;;;;;;;;;;;;;;;;4936603;29;20009;-85
2023/08/10 22:18:39;;;;;;;;;;;;;;;;;;4936610;29;19918;-85
2023/08/10 22:21:05;;;;;;;;;;;;;;;;;;4919337;29;19918;-84
2023/08/10 22:23:30;;;;;;;;;;;;;;;;;;4936523;29;20382;-84
2023/08/10 22:25:56;;;;;;;;;;;;;;;;;;4936338;29;19921;-85
2023/08/10 22:28:21;;;;;;;;;;;;;;;;;;4936322;29;19919;-85
2023/08/10 22:30:46;;;;;;;;;;;;;;;;;;4936488;29;19930;-85
2023/08/10 22:33:12;;;;;;;;;;;;;;;;;;4919241;29;19965;-85
2023/08/10 22:35:37;;;;;;;;;;;;;;;;;;4936543;29;19915;-85
2023/08/10 22:38:03;;;;;;;;;;;;;;;;;;4936339;29;20387;-85
2023/08/10 22:40:28;;;;;;;;;;;;;;;;;;4936418;29;19918;-86
2023/08/10 22:42:54;;;;;;;;;;;;;;;;;;4936500;29;19915;-86
2023/08/10 22:45:20;;;;;;;;;;;;;;;;;;4936475;29;20009;-86
2023/08/10 22:47:45;;;;;;;;;;;;;;;;;;4937586;29;19922;-85
2023/08/10 22:50:13;;;;;;;;;;;;;;;;;;4939936;29;19915;-86
2023/08/10 22:52:38;;;;;;;;;;;;;;;;;;4939927;29;20033;-87
2023/08/10 22:55:04;;;;;;;;;;;;;;;;;;4939842;29;20022;-85
2023/08/10 22:57:29;;;;;;;;;;;;;;;;;;4939504;29;19922;-85
2023/08/10 22:59:54;;;;;;;;;;;;;;;;;;4940056;29;19914;-85
2023/08/10 23:02:20;;;;;;;;;;;;;;;;;;4922640;29;19922;-86
2023/08/10 23:04:45;;;;;;;;;;;;;;;;;;4939677;29;19918;-87
2023/08/10 23:07:10;;;;;;;;;;;;;;;;;;4939637;29;19921;-86
2023/08/10 23:09:36;;;;;;;;;;;;;;;;;;4939663;29;19926;-86
2023/08/10 23:12:01;;;;;;;;;;;;;;;;;;4939527;29;19930;-86
2023/08/10 23:14:26;;;;;;;;;;;;;;;;;;4939316;29;19914;-86
2023/08/10 23:16:52;;;;;;;;;;;;;;;;;;4939276;29;20005;-86
2023/08/10 23:19:18;;;;;;;;;;;;;;;;;;4939464;29;19918;-84
2023/08/10 23:21:44;;;;;;;;;;;;;;;;;;4939496;29;19973;-85
